SUSO

Nueva Hesperides International Airport

Salto, Uruguay
TAF SUSO 151145Z 1512/1612 11005KT CAVOK TX17/1518Z TN06/1610Z
Issued Valid From Valid To
Aug-15 @ 11:45 UTC
(56 minutes ago)
Aug-15 @ 12:00 UTC
(41 minutes ago)
Aug-16 @ 12:00 UTC
(in 23 hours)
Aug-15 @ 12:00 to Aug-16 @ 12:00
TAF SUSO 151145Z 1512/1612 11005KT CAVOK TX17/1518Z TN06/1610Z
Wind Visibility Clouds
110° at 5 knots 10,000+ meters
  • No significant clouds
TAF SUSO 151145Z 1512/1612 11005KT CAVOK TX17/1518Z TN06/1610Z
Issued Aug-15 @ 11:45 UTC
(56 minutes ago)
Valid From Aug-15 @ 12:00 UTC
(41 minutes ago)
Valid To Aug-16 @ 12:00 UTC
(in 23 hours)
Aug-15 @ 12:00 - Aug-16 @ 12:00
Wind Visibility
110° at 5 knots 10,000+ meters
Clouds
  • No significant clouds